Saint Paul, Nebraska
Current Conditions -  °F | °C
As of 11:53 AM on Sunday 21 Dec 2014 (Local Time) from KGRI Reporting Station
Haze Haze  
Wind Chill: 25°   Ceiling: 400
Heat Index: 36°   Visibility: 3mi
Dew Point: 34°   Wind: 20mph
Humidity: 93%   Direction: 200°SSW
Pressure: 29.74"   Gusts: 25mph
Location:  41.21°N, 98.46°W
Report Text: KGRI 211753Z 20017G22KT 3SM BR OVC004 02/01 A2974 RMK AO2 SLP090 I6001 T00220011 10022 21006 58012
Loading
Personal Weather Stations






























Interactive Weather Map New forecast layout! Learn more

10-Day Weather Forecast

Advertisements
Track Severe Weather on mobile